sensor_id;sensor_type;location;lat;lon;timestamp;P1;durP1;ratioP1;P2;durP2;ratioP2
70981;SDS011;58640;51.320;9.456;2022-09-13T00:00:34;8.38;;;5.97;;
70981;SDS011;58640;51.320;9.456;2022-09-13T00:03:00;8.73;;;6.22;;
70981;SDS011;58640;51.320;9.456;2022-09-13T00:05:26;7.72;;;5.50;;
70981;SDS011;58640;51.320;9.456;2022-09-13T00:07:52;10.82;;;6.45;;
70981;SDS011;58640;51.320;9.456;2022-09-13T00:10:18;10.10;;;5.70;;
70981;SDS011;58640;51.320;9.456;2022-09-13T00:12:43;12.55;;;6.10;;
70981;SDS011;58640;51.320;9.456;2022-09-13T00:15:09;10.50;;;6.55;;
70981;SDS011;58640;51.320;9.456;2022-09-13T00:17:35;8.52;;;5.90;;
70981;SDS011;58640;51.320;9.456;2022-09-13T00:20:01;8.38;;;5.68;;
70981;SDS011;58640;51.320;9.456;2022-09-13T00:22:27;7.50;;;5.63;;
70981;SDS011;58640;51.320;9.456;2022-09-13T00:24:53;10.25;;;6.15;;
70981;SDS011;58640;51.320;9.456;2022-09-13T00:27:18;10.40;;;5.93;;
70981;SDS011;58640;51.320;9.456;2022-09-13T00:29:43;10.10;;;5.78;;
70981;SDS011;58640;51.320;9.456;2022-09-13T00:32:10;8.10;;;5.90;;
70981;SDS011;58640;51.320;9.456;2022-09-13T00:34:35;8.43;;;5.32;;
70981;SDS011;58640;51.320;9.456;2022-09-13T00:37:01;6.93;;;5.38;;
70981;SDS011;58640;51.320;9.456;2022-09-13T00:39:26;9.25;;;5.78;;
70981;SDS011;58640;51.320;9.456;2022-09-13T00:41:51;8.52;;;4.90;;
70981;SDS011;58640;51.320;9.456;2022-09-13T00:47:18;7.25;;;5.32;;
70981;SDS011;58640;51.320;9.456;2022-09-13T00:49:47;6.25;;;4.60;;
70981;SDS011;58640;51.320;9.456;2022-09-13T00:52:18;6.65;;;5.45;;
70981;SDS011;58640;51.320;9.456;2022-09-13T00:54:48;7.90;;;5.07;;
70981;SDS011;58640;51.320;9.456;2022-09-13T00:57:18;5.68;;;4.43;;
70981;SDS011;58640;51.320;9.456;2022-09-13T00:59:46;9.07;;;5.53;;
70981;SDS011;58640;51.320;9.456;2022-09-13T01:02:31;7.68;;;5.15;;
70981;SDS011;58640;51.320;9.456;2022-09-13T01:04:56;7.10;;;5.55;;
70981;SDS011;58640;51.320;9.456;2022-09-13T01:07:22;10.52;;;5.93;;
70981;SDS011;58640;51.320;9.456;2022-09-13T01:09:48;5.45;;;4.63;;
70981;SDS011;58640;51.320;9.456;2022-09-13T01:12:24;7.07;;;5.32;;
70981;SDS011;58640;51.320;9.456;2022-09-13T01:14:58;7.00;;;5.38;;
70981;SDS011;58640;51.320;9.456;2022-09-13T01:17:26;6.57;;;5.00;;
70981;SDS011;58640;51.320;9.456;2022-09-13T01:19:53;6.30;;;5.07;;
70981;SDS011;58640;51.320;9.456;2022-09-13T01:25:26;7.90;;;4.72;;
70981;SDS011;58640;51.320;9.456;2022-09-13T01:31:06;8.05;;;5.30;;
70981;SDS011;58640;51.320;9.456;2022-09-13T01:39:07;8.00;;;5.95;;
70981;SDS011;58640;51.320;9.456;2022-09-13T01:44:36;8.32;;;5.88;;
70981;SDS011;58640;51.320;9.456;2022-09-13T01:47:47;6.57;;;5.40;;
70981;SDS011;58640;51.320;9.456;2022-09-13T01:50:06;9.52;;;5.30;;
70981;SDS011;58640;51.320;9.456;2022-09-13T01:52:43;6.28;;;5.30;;
70981;SDS011;58640;51.320;9.456;2022-09-13T02:00:59;8.52;;;6.53;;
70981;SDS011;58640;51.320;9.456;2022-09-13T02:03:36;8.00;;;6.07;;
70981;SDS011;58640;51.320;9.456;2022-09-13T02:06:07;7.90;;;5.68;;
70981;SDS011;58640;51.320;9.456;2022-09-13T02:08:39;7.95;;;6.57;;
70981;SDS011;58640;51.320;9.456;2022-09-13T02:11:15;7.68;;;6.18;;
70981;SDS011;58640;51.320;9.456;2022-09-13T02:13:46;10.35;;;5.75;;
70981;SDS011;58640;51.320;9.456;2022-09-13T02:16:25;9.70;;;6.40;;
70981;SDS011;58640;51.320;9.456;2022-09-13T02:18:57;8.82;;;6.25;;
70981;SDS011;58640;51.320;9.456;2022-09-13T02:21:27;8.32;;;6.22;;
70981;SDS011;58640;51.320;9.456;2022-09-13T02:24:00;9.15;;;6.38;;
70981;SDS011;58640;51.320;9.456;2022-09-13T02:26:30;8.35;;;6.05;;
70981;SDS011;58640;51.320;9.456;2022-09-13T02:29:01;6.50;;;5.20;;
70981;SDS011;58640;51.320;9.456;2022-09-13T02:31:39;7.93;;;6.07;;
70981;SDS011;58640;51.320;9.456;2022-09-13T02:34:17;7.95;;;5.78;;
70981;SDS011;58640;51.320;9.456;2022-09-13T02:36:46;9.30;;;5.88;;
70981;SDS011;58640;51.320;9.456;2022-09-13T02:39:17;9.63;;;6.03;;
70981;SDS011;58640;51.320;9.456;2022-09-13T02:44:27;7.28;;;6.18;;
70981;SDS011;58640;51.320;9.456;2022-09-13T02:47:04;10.35;;;6.07;;
70981;SDS011;58640;51.320;9.456;2022-09-13T02:53:10;10.77;;;6.43;;
70981;SDS011;58640;51.320;9.456;2022-09-13T03:01:15;9.18;;;6.25;;
70981;SDS011;58640;51.320;9.456;2022-09-13T03:03:41;8.40;;;5.70;;
70981;SDS011;58640;51.320;9.456;2022-09-13T03:06:06;8.57;;;6.60;;
70981;SDS011;58640;51.320;9.456;2022-09-13T03:08:32;13.32;;;6.25;;
70981;SDS011;58640;51.320;9.456;2022-09-13T03:11:06;8.77;;;6.30;;
70981;SDS011;58640;51.320;9.456;2022-09-13T03:27:49;11.07;;;6.57;;
70981;SDS011;58640;51.320;9.456;2022-09-13T03:30:25;10.02;;;6.63;;
70981;SDS011;58640;51.320;9.456;2022-09-13T03:35:46;9.38;;;6.80;;
70981;SDS011;58640;51.320;9.456;2022-09-13T03:41:09;8.57;;;6.85;;
70981;SDS011;58640;51.320;9.456;2022-09-13T03:46:28;10.15;;;7.10;;
70981;SDS011;58640;51.320;9.456;2022-09-13T03:48:57;12.30;;;7.40;;
70981;SDS011;58640;51.320;9.456;2022-09-13T03:51:27;9.70;;;6.45;;
70981;SDS011;58640;51.320;9.456;2022-09-13T03:53:53;10.13;;;7.15;;
70981;SDS011;58640;51.320;9.456;2022-09-13T03:56:22;10.15;;;6.45;;
70981;SDS011;58640;51.320;9.456;2022-09-13T03:58:48;8.93;;;7.43;;
70981;SDS011;58640;51.320;9.456;2022-09-13T04:01:15;12.30;;;7.40;;
70981;SDS011;58640;51.320;9.456;2022-09-13T04:03:44;8.82;;;6.78;;
70981;SDS011;58640;51.320;9.456;2022-09-13T04:06:10;9.93;;;7.53;;
70981;SDS011;58640;51.320;9.456;2022-09-13T04:08:35;15.65;;;7.18;;
70981;SDS011;58640;51.320;9.456;2022-09-13T04:11:00;10.60;;;7.60;;
70981;SDS011;58640;51.320;9.456;2022-09-13T04:13:26;11.82;;;6.30;;
70981;SDS011;58640;51.320;9.456;2022-09-13T04:15:51;10.32;;;7.70;;
70981;SDS011;58640;51.320;9.456;2022-09-13T04:18:17;14.50;;;7.35;;
70981;SDS011;58640;51.320;9.456;2022-09-13T04:20:42;11.95;;;8.05;;
70981;SDS011;58640;51.320;9.456;2022-09-13T04:23:08;16.65;;;8.30;;
70981;SDS011;58640;51.320;9.456;2022-09-13T04:25:36;13.15;;;7.88;;
70981;SDS011;58640;51.320;9.456;2022-09-13T04:28:03;10.90;;;7.70;;
70981;SDS011;58640;51.320;9.456;2022-09-13T04:30:28;11.05;;;8.07;;
70981;SDS011;58640;51.320;9.456;2022-09-13T04:32:54;8.90;;;7.35;;
70981;SDS011;58640;51.320;9.456;2022-09-13T04:35:23;15.15;;;7.50;;
70981;SDS011;58640;51.320;9.456;2022-09-13T04:37:49;10.18;;;7.65;;
70981;SDS011;58640;51.320;9.456;2022-09-13T04:40:14;8.98;;;7.32;;
70981;SDS011;58640;51.320;9.456;2022-09-13T04:42:40;11.48;;;7.80;;
70981;SDS011;58640;51.320;9.456;2022-09-13T04:45:05;11.98;;;7.45;;
70981;SDS011;58640;51.320;9.456;2022-09-13T04:47:31;11.02;;;7.40;;
70981;SDS011;58640;51.320;9.456;2022-09-13T04:49:56;9.27;;;7.40;;
70981;SDS011;58640;51.320;9.456;2022-09-13T04:52:22;9.45;;;7.85;;
70981;SDS011;58640;51.320;9.456;2022-09-13T04:54:47;9.60;;;7.32;;
70981;SDS011;58640;51.320;9.456;2022-09-13T04:57:13;11.77;;;8.02;;
70981;SDS011;58640;51.320;9.456;2022-09-13T04:59:40;9.63;;;7.35;;
70981;SDS011;58640;51.320;9.456;2022-09-13T05:02:06;9.80;;;7.55;;
70981;SDS011;58640;51.320;9.456;2022-09-13T05:04:31;9.75;;;7.05;;
70981;SDS011;58640;51.320;9.456;2022-09-13T05:06:56;11.43;;;7.97;;
70981;SDS011;58640;51.320;9.456;2022-09-13T05:09:23;11.45;;;7.82;;
70981;SDS011;58640;51.320;9.456;2022-09-13T05:11:48;10.23;;;6.85;;
70981;SDS011;58640;51.320;9.456;2022-09-13T05:14:14;9.93;;;7.50;;
70981;SDS011;58640;51.320;9.456;2022-09-13T05:16:39;11.45;;;8.32;;
70981;SDS011;58640;51.320;9.456;2022-09-13T05:19:05;12.38;;;8.70;;
70981;SDS011;58640;51.320;9.456;2022-09-13T05:21:30;10.77;;;8.00;;
70981;SDS011;58640;51.320;9.456;2022-09-13T05:23:56;11.38;;;7.95;;
70981;SDS011;58640;51.320;9.456;2022-09-13T05:26:23;10.48;;;7.80;;
70981;SDS011;58640;51.320;9.456;2022-09-13T05:28:50;12.40;;;8.10;;
70981;SDS011;58640;51.320;9.456;2022-09-13T05:31:16;12.35;;;7.68;;
70981;SDS011;58640;51.320;9.456;2022-09-13T05:33:44;11.48;;;7.97;;
70981;SDS011;58640;51.320;9.456;2022-09-13T05:36:11;10.68;;;8.10;;
70981;SDS011;58640;51.320;9.456;2022-09-13T05:38:36;15.90;;;9.05;;
70981;SDS011;58640;51.320;9.456;2022-09-13T05:41:02;13.32;;;8.13;;
70981;SDS011;58640;51.320;9.456;2022-09-13T05:43:29;11.25;;;8.38;;
70981;SDS011;58640;51.320;9.456;2022-09-13T05:46:03;23.20;;;9.13;;
70981;SDS011;58640;51.320;9.456;2022-09-13T05:48:31;11.18;;;8.25;;
70981;SDS011;58640;51.320;9.456;2022-09-13T05:51:02;13.55;;;8.40;;
70981;SDS011;58640;51.320;9.456;2022-09-13T05:53:38;12.50;;;9.43;;
70981;SDS011;58640;51.320;9.456;2022-09-13T05:56:10;13.85;;;8.85;;
70981;SDS011;58640;51.320;9.456;2022-09-13T05:58:39;13.38;;;8.40;;
70981;SDS011;58640;51.320;9.456;2022-09-13T06:01:05;10.50;;;8.35;;
70981;SDS011;58640;51.320;9.456;2022-09-13T06:03:31;11.73;;;7.85;;
70981;SDS011;58640;51.320;9.456;2022-09-13T06:05:57;11.63;;;8.05;;
70981;SDS011;58640;51.320;9.456;2022-09-13T06:08:23;15.23;;;8.43;;
70981;SDS011;58640;51.320;9.456;2022-09-13T06:10:56;11.88;;;8.15;;
70981;SDS011;58640;51.320;9.456;2022-09-13T06:13:26;11.75;;;8.13;;
70981;SDS011;58640;51.320;9.456;2022-09-13T06:15:55;10.82;;;6.85;;
70981;SDS011;58640;51.320;9.456;2022-09-13T06:18:22;16.05;;;7.93;;
70981;SDS011;58640;51.320;9.456;2022-09-13T06:20:48;14.10;;;8.18;;
70981;SDS011;58640;51.320;9.456;2022-09-13T06:23:14;11.90;;;8.50;;
70981;SDS011;58640;51.320;9.456;2022-09-13T06:25:40;13.25;;;9.43;;
70981;SDS011;58640;51.320;9.456;2022-09-13T06:28:06;11.57;;;9.05;;
70981;SDS011;58640;51.320;9.456;2022-09-13T06:30:32;13.43;;;9.18;;
70981;SDS011;58640;51.320;9.456;2022-09-13T06:32:57;11.00;;;8.13;;
70981;SDS011;58640;51.320;9.456;2022-09-13T06:35:23;14.45;;;8.98;;
70981;SDS011;58640;51.320;9.456;2022-09-13T06:37:49;11.50;;;8.27;;
70981;SDS011;58640;51.320;9.456;2022-09-13T06:40:14;11.43;;;9.25;;
70981;SDS011;58640;51.320;9.456;2022-09-13T06:42:41;13.30;;;8.90;;
70981;SDS011;58640;51.320;9.456;2022-09-13T06:45:07;11.55;;;8.70;;
70981;SDS011;58640;51.320;9.456;2022-09-13T06:47:32;14.05;;;9.30;;
70981;SDS011;58640;51.320;9.456;2022-09-13T06:49:58;11.27;;;8.68;;
70981;SDS011;58640;51.320;9.456;2022-09-13T06:52:24;12.70;;;8.38;;
70981;SDS011;58640;51.320;9.456;2022-09-13T06:54:51;12.43;;;9.23;;
70981;SDS011;58640;51.320;9.456;2022-09-13T06:57:17;13.30;;;9.10;;
70981;SDS011;58640;51.320;9.456;2022-09-13T06:59:42;10.77;;;8.23;;
70981;SDS011;58640;51.320;9.456;2022-09-13T07:02:08;10.93;;;7.97;;
70981;SDS011;58640;51.320;9.456;2022-09-13T07:04:34;14.50;;;9.02;;
70981;SDS011;58640;51.320;9.456;2022-09-13T07:06:59;12.18;;;8.90;;
70981;SDS011;58640;51.320;9.456;2022-09-13T07:09:25;12.50;;;8.50;;
70981;SDS011;58640;51.320;9.456;2022-09-13T07:11:52;17.17;;;9.15;;
70981;SDS011;58640;51.320;9.456;2022-09-13T07:14:20;11.73;;;8.20;;
70981;SDS011;58640;51.320;9.456;2022-09-13T07:16:47;10.10;;;8.05;;
70981;SDS011;58640;51.320;9.456;2022-09-13T07:19:16;9.93;;;8.32;;
70981;SDS011;58640;51.320;9.456;2022-09-13T07:21:44;14.10;;;9.07;;
70981;SDS011;58640;51.320;9.456;2022-09-13T07:24:10;11.18;;;8.43;;
70981;SDS011;58640;51.320;9.456;2022-09-13T07:26:36;18.85;;;8.10;;
70981;SDS011;58640;51.320;9.456;2022-09-13T07:29:04;12.10;;;8.35;;
70981;SDS011;58640;51.320;9.456;2022-09-13T07:31:33;12.48;;;8.48;;
70981;SDS011;58640;51.320;9.456;2022-09-13T07:34:05;12.05;;;8.93;;
70981;SDS011;58640;51.320;9.456;2022-09-13T07:36:33;11.85;;;8.30;;
70981;SDS011;58640;51.320;9.456;2022-09-13T07:38:59;11.20;;;8.20;;
70981;SDS011;58640;51.320;9.456;2022-09-13T07:41:26;12.25;;;8.63;;
70981;SDS011;58640;51.320;9.456;2022-09-13T07:43:52;10.88;;;7.97;;
70981;SDS011;58640;51.320;9.456;2022-09-13T07:46:19;16.52;;;9.55;;
70981;SDS011;58640;51.320;9.456;2022-09-13T07:48:45;10.38;;;8.07;;
70981;SDS011;58640;51.320;9.456;2022-09-13T07:51:12;9.88;;;8.63;;
70981;SDS011;58640;51.320;9.456;2022-09-13T07:53:41;12.20;;;8.40;;
70981;SDS011;58640;51.320;9.456;2022-09-13T07:56:12;13.70;;;9.48;;
70981;SDS011;58640;51.320;9.456;2022-09-13T07:58:40;13.57;;;8.70;;
70981;SDS011;58640;51.320;9.456;2022-09-13T08:01:07;12.00;;;9.52;;
70981;SDS011;58640;51.320;9.456;2022-09-13T08:03:39;13.98;;;9.07;;
70981;SDS011;58640;51.320;9.456;2022-09-13T08:06:05;15.32;;;9.25;;
70981;SDS011;58640;51.320;9.456;2022-09-13T08:08:31;12.90;;;9.75;;
70981;SDS011;58640;51.320;9.456;2022-09-13T08:10:58;15.63;;;9.55;;
70981;SDS011;58640;51.320;9.456;2022-09-13T08:13:24;14.85;;;9.10;;
70981;SDS011;58640;51.320;9.456;2022-09-13T08:15:49;11.98;;;8.73;;
70981;SDS011;58640;51.320;9.456;2022-09-13T08:18:15;12.63;;;8.88;;
70981;SDS011;58640;51.320;9.456;2022-09-13T08:20:41;13.85;;;9.35;;
70981;SDS011;58640;51.320;9.456;2022-09-13T08:23:07;13.02;;;9.73;;
70981;SDS011;58640;51.320;9.456;2022-09-13T08:25:35;14.48;;;10.75;;
70981;SDS011;58640;51.320;9.456;2022-09-13T08:28:05;13.13;;;8.98;;
70981;SDS011;58640;51.320;9.456;2022-09-13T08:30:35;13.55;;;8.70;;
70981;SDS011;58640;51.320;9.456;2022-09-13T08:33:02;11.80;;;9.13;;
70981;SDS011;58640;51.320;9.456;2022-09-13T08:35:28;19.38;;;10.60;;
70981;SDS011;58640;51.320;9.456;2022-09-13T08:37:54;14.00;;;9.10;;
70981;SDS011;58640;51.320;9.456;2022-09-13T08:40:20;11.52;;;8.40;;
70981;SDS011;58640;51.320;9.456;2022-09-13T08:42:50;13.50;;;8.95;;
70981;SDS011;58640;51.320;9.456;2022-09-13T08:45:22;12.05;;;8.65;;
70981;SDS011;58640;51.320;9.456;2022-09-13T08:50:20;13.85;;;9.23;;
70981;SDS011;58640;51.320;9.456;2022-09-13T08:52:58;12.48;;;7.80;;
70981;SDS011;58640;51.320;9.456;2022-09-13T09:00:54;10.70;;;7.35;;
70981;SDS011;58640;51.320;9.456;2022-09-13T09:03:33;11.70;;;7.57;;
70981;SDS011;58640;51.320;9.456;2022-09-13T09:06:11;13.63;;;8.20;;
70981;SDS011;58640;51.320;9.456;2022-09-13T09:08:58;12.60;;;7.97;;
70981;SDS011;58640;51.320;9.456;2022-09-13T09:11:31;8.95;;;7.00;;
70981;SDS011;58640;51.320;9.456;2022-09-13T09:14:14;10.32;;;7.45;;
70981;SDS011;58640;51.320;9.456;2022-09-13T09:16:57;7.80;;;7.00;;
70981;SDS011;58640;51.320;9.456;2022-09-13T09:21:58;10.48;;;7.63;;
70981;SDS011;58640;51.320;9.456;2022-09-13T09:24:26;9.02;;;7.03;;
70981;SDS011;58640;51.320;9.456;2022-09-13T09:26:51;11.18;;;7.82;;
70981;SDS011;58640;51.320;9.456;2022-09-13T09:29:23;11.05;;;8.10;;
70981;SDS011;58640;51.320;9.456;2022-09-13T09:37:20;10.43;;;7.90;;
70981;SDS011;58640;51.320;9.456;2022-09-13T09:39:49;11.07;;;8.52;;
70981;SDS011;58640;51.320;9.456;2022-09-13T09:42:20;10.75;;;7.70;;
70981;SDS011;58640;51.320;9.456;2022-09-13T09:45:04;9.48;;;6.93;;
70981;SDS011;58640;51.320;9.456;2022-09-13T09:47:48;9.25;;;7.10;;
70981;SDS011;58640;51.320;9.456;2022-09-13T09:50:15;12.35;;;7.47;;
70981;SDS011;58640;51.320;9.456;2022-09-13T09:52:45;9.43;;;7.00;;
70981;SDS011;58640;51.320;9.456;2022-09-13T09:58:05;9.90;;;7.10;;
70981;SDS011;58640;51.320;9.456;2022-09-13T10:00:34;7.47;;;6.43;;
70981;SDS011;58640;51.320;9.456;2022-09-13T10:03:03;9.70;;;6.57;;
70981;SDS011;58640;51.320;9.456;2022-09-13T10:05:32;8.88;;;6.68;;
70981;SDS011;58640;51.320;9.456;2022-09-13T10:08:03;7.93;;;7.00;;
70981;SDS011;58640;51.320;9.456;2022-09-13T10:10:43;7.75;;;6.03;;
70981;SDS011;58640;51.320;9.456;2022-09-13T10:13:19;8.90;;;6.15;;
70981;SDS011;58640;51.320;9.456;2022-09-13T10:15:59;8.27;;;5.90;;
70981;SDS011;58640;51.320;9.456;2022-09-13T10:18:31;8.48;;;5.43;;
70981;SDS011;58640;51.320;9.456;2022-09-13T10:21:00;7.13;;;5.68;;
70981;SDS011;58640;51.320;9.456;2022-09-13T10:23:44;7.90;;;5.80;;
70981;SDS011;58640;51.320;9.456;2022-09-13T10:26:15;10.57;;;6.32;;
70981;SDS011;58640;51.320;9.456;2022-09-13T10:28:45;7.95;;;5.28;;
70981;SDS011;58640;51.320;9.456;2022-09-13T10:31:21;6.88;;;5.70;;
70981;SDS011;58640;51.320;9.456;2022-09-13T10:36:25;6.53;;;4.90;;
70981;SDS011;58640;51.320;9.456;2022-09-13T10:38:57;8.52;;;4.85;;
70981;SDS011;58640;51.320;9.456;2022-09-13T10:41:28;8.27;;;5.57;;
70981;SDS011;58640;51.320;9.456;2022-09-13T10:44:03;6.60;;;5.57;;
70981;SDS011;58640;51.320;9.456;2022-09-13T10:46:34;8.65;;;5.50;;
70981;SDS011;58640;51.320;9.456;2022-09-13T10:49:02;7.03;;;5.80;;
70981;SDS011;58640;51.320;9.456;2022-09-13T10:51:37;9.18;;;6.55;;
70981;SDS011;58640;51.320;9.456;2022-09-13T10:54:45;8.40;;;5.95;;
70981;SDS011;58640;51.320;9.456;2022-09-13T10:56:51;8.10;;;5.75;;
70981;SDS011;58640;51.320;9.456;2022-09-13T10:59:23;6.50;;;5.20;;
70981;SDS011;58640;51.320;9.456;2022-09-13T11:02:04;4.40;;;3.90;;
70981;SDS011;58640;51.320;9.456;2022-09-13T11:24:43;6.10;;;3.70;;
70981;SDS011;58640;51.320;9.456;2022-09-13T11:27:37;5.18;;;3.45;;
70981;SDS011;58640;51.320;9.456;2022-09-13T11:30:09;4.13;;;3.28;;
70981;SDS011;58640;51.320;9.456;2022-09-13T11:32:48;3.80;;;3.33;;
70981;SDS011;58640;51.320;9.456;2022-09-13T11:41:09;3.28;;;2.97;;
70981;SDS011;58640;51.320;9.456;2022-09-13T11:49:25;4.32;;;3.30;;
70981;SDS011;58640;51.320;9.456;2022-09-13T11:52:06;8.20;;;4.45;;
70981;SDS011;58640;51.320;9.456;2022-09-13T11:54:51;4.95;;;3.10;;
70981;SDS011;58640;51.320;9.456;2022-09-13T11:57:28;3.35;;;2.88;;
70981;SDS011;58640;51.320;9.456;2022-09-13T12:00:22;4.53;;;3.33;;
70981;SDS011;58640;51.320;9.456;2022-09-13T12:05:55;6.35;;;3.38;;
70981;SDS011;58640;51.320;9.456;2022-09-13T12:08:28;5.30;;;3.30;;
70981;SDS011;58640;51.320;9.456;2022-09-13T12:11:03;5.50;;;3.97;;
70981;SDS011;58640;51.320;9.456;2022-09-13T12:13:36;5.00;;;3.75;;
70981;SDS011;58640;51.320;9.456;2022-09-13T12:16:11;6.40;;;3.55;;
70981;SDS011;58640;51.320;9.456;2022-09-13T12:18:42;5.43;;;3.78;;
70981;SDS011;58640;51.320;9.456;2022-09-13T12:21:16;5.00;;;3.15;;
70981;SDS011;58640;51.320;9.456;2022-09-13T12:24:01;9.88;;;3.63;;
70981;SDS011;58640;51.320;9.456;2022-09-13T12:26:38;5.97;;;3.20;;
70981;SDS011;58640;51.320;9.456;2022-09-13T12:29:12;4.15;;;3.20;;
70981;SDS011;58640;51.320;9.456;2022-09-13T12:31:41;8.82;;;3.30;;
70981;SDS011;58640;51.320;9.456;2022-09-13T12:34:08;3.33;;;2.95;;
70981;SDS011;58640;51.320;9.456;2022-09-13T12:56:31;4.28;;;2.92;;
70981;SDS011;58640;51.320;9.456;2022-09-13T13:01:49;2.45;;;2.25;;
70981;SDS011;58640;51.320;9.456;2022-09-13T13:06:58;6.25;;;2.40;;
70981;SDS011;58640;51.320;9.456;2022-09-13T13:09:30;7.15;;;2.15;;
70981;SDS011;58640;51.320;9.456;2022-09-13T13:14:48;2.95;;;2.10;;
70981;SDS011;58640;51.320;9.456;2022-09-13T13:17:37;2.70;;;2.15;;
70981;SDS011;58640;51.320;9.456;2022-09-13T13:23:15;3.60;;;3.08;;
70981;SDS011;58640;51.320;9.456;2022-09-13T13:33:55;3.72;;;2.30;;
70981;SDS011;58640;51.320;9.456;2022-09-13T13:46:49;2.00;;;1.80;;
70981;SDS011;58640;51.320;9.456;2022-09-13T14:00:14;5.63;;;2.60;;
70981;SDS011;58640;51.320;9.456;2022-09-13T14:10:28;3.95;;;1.80;;
70981;SDS011;58640;51.320;9.456;2022-09-13T14:13:18;2.15;;;1.95;;
70981;SDS011;58640;51.320;9.456;2022-09-13T14:21:42;11.60;;;2.00;;
70981;SDS011;58640;51.320;9.456;2022-09-13T14:26:52;1.95;;;1.67;;
70981;SDS011;58640;51.320;9.456;2022-09-13T14:29:22;2.42;;;2.00;;
70981;SDS011;58640;51.320;9.456;2022-09-13T14:31:50;2.53;;;2.10;;
70981;SDS011;58640;51.320;9.456;2022-09-13T14:34:22;2.53;;;1.73;;
70981;SDS011;58640;51.320;9.456;2022-09-13T14:36:52;3.20;;;1.60;;
70981;SDS011;58640;51.320;9.456;2022-09-13T14:39:20;2.75;;;1.80;;
70981;SDS011;58640;51.320;9.456;2022-09-13T14:41:45;3.13;;;1.77;;
70981;SDS011;58640;51.320;9.456;2022-09-13T14:44:20;1.73;;;1.63;;
70981;SDS011;58640;51.320;9.456;2022-09-13T14:46:59;5.22;;;4.38;;
70981;SDS011;58640;51.320;9.456;2022-09-13T14:49:32;2.65;;;2.03;;
70981;SDS011;58640;51.320;9.456;2022-09-13T14:52:09;2.30;;;1.70;;
70981;SDS011;58640;51.320;9.456;2022-09-13T14:54:45;3.78;;;1.65;;
70981;SDS011;58640;51.320;9.456;2022-09-13T15:02:39;2.30;;;2.05;;
70981;SDS011;58640;51.320;9.456;2022-09-13T15:05:12;2.70;;;1.90;;
70981;SDS011;58640;51.320;9.456;2022-09-13T15:07:40;4.80;;;1.60;;
70981;SDS011;58640;51.320;9.456;2022-09-13T15:12:54;2.45;;;1.42;;
70981;SDS011;58640;51.320;9.456;2022-09-13T15:20:48;1.48;;;1.00;;
70981;SDS011;58640;51.320;9.456;2022-09-13T15:23:26;3.10;;;1.10;;
70981;SDS011;58640;51.320;9.456;2022-09-13T15:26:09;3.00;;;1.20;;
70981;SDS011;58640;51.320;9.456;2022-09-13T15:31:08;2.25;;;1.25;;
70981;SDS011;58640;51.320;9.456;2022-09-13T15:33:36;4.75;;;1.40;;
70981;SDS011;58640;51.320;9.456;2022-09-13T15:36:14;6.97;;;1.15;;
70981;SDS011;58640;51.320;9.456;2022-09-13T15:41:51;3.28;;;1.65;;
70981;SDS011;58640;51.320;9.456;2022-09-13T15:44:17;1.98;;;1.13;;
70981;SDS011;58640;51.320;9.456;2022-09-13T15:46:44;2.13;;;1.13;;
70981;SDS011;58640;51.320;9.456;2022-09-13T15:49:15;2.72;;;1.08;;
70981;SDS011;58640;51.320;9.456;2022-09-13T15:51:42;1.27;;;0.93;;
70981;SDS011;58640;51.320;9.456;2022-09-13T15:54:09;2.67;;;1.38;;
70981;SDS011;58640;51.320;9.456;2022-09-13T15:56:36;3.55;;;1.67;;
70981;SDS011;58640;51.320;9.456;2022-09-13T15:59:05;4.00;;;1.35;;
70981;SDS011;58640;51.320;9.456;2022-09-13T16:01:30;2.28;;;1.33;;
70981;SDS011;58640;51.320;9.456;2022-09-13T16:03:55;3.60;;;1.23;;
70981;SDS011;58640;51.320;9.456;2022-09-13T16:06:21;2.95;;;1.20;;
70981;SDS011;58640;51.320;9.456;2022-09-13T16:08:47;3.05;;;1.35;;
70981;SDS011;58640;51.320;9.456;2022-09-13T16:11:12;3.85;;;2.15;;
70981;SDS011;58640;51.320;9.456;2022-09-13T16:13:37;3.80;;;1.40;;
70981;SDS011;58640;51.320;9.456;2022-09-13T16:16:03;2.42;;;1.48;;
70981;SDS011;58640;51.320;9.456;2022-09-13T16:18:29;1.20;;;1.08;;
70981;SDS011;58640;51.320;9.456;2022-09-13T16:20:54;2.28;;;1.30;;
70981;SDS011;58640;51.320;9.456;2022-09-13T16:23:20;2.25;;;1.83;;
70981;SDS011;58640;51.320;9.456;2022-09-13T16:25:45;4.15;;;1.70;;
70981;SDS011;58640;51.320;9.456;2022-09-13T16:28:14;2.78;;;1.85;;
70981;SDS011;58640;51.320;9.456;2022-09-13T16:30:41;2.90;;;1.67;;
70981;SDS011;58640;51.320;9.456;2022-09-13T16:33:07;4.03;;;2.88;;
70981;SDS011;58640;51.320;9.456;2022-09-13T16:35:33;6.30;;;3.60;;
70981;SDS011;58640;51.320;9.456;2022-09-13T16:37:58;4.80;;;3.25;;
70981;SDS011;58640;51.320;9.456;2022-09-13T16:40:23;3.13;;;2.83;;
70981;SDS011;58640;51.320;9.456;2022-09-13T16:42:49;6.05;;;3.38;;
70981;SDS011;58640;51.320;9.456;2022-09-13T16:45:14;10.55;;;3.95;;
70981;SDS011;58640;51.320;9.456;2022-09-13T16:47:40;7.10;;;3.85;;
70981;SDS011;58640;51.320;9.456;2022-09-13T16:50:06;7.20;;;3.55;;
70981;SDS011;58640;51.320;9.456;2022-09-13T16:52:33;9.52;;;3.97;;
70981;SDS011;58640;51.320;9.456;2022-09-13T16:54:59;11.05;;;4.05;;
70981;SDS011;58640;51.320;9.456;2022-09-13T16:57:25;8.20;;;3.97;;
70981;SDS011;58640;51.320;9.456;2022-09-13T16:59:53;10.95;;;4.28;;
70981;SDS011;58640;51.320;9.456;2022-09-13T17:02:22;5.50;;;3.28;;
70981;SDS011;58640;51.320;9.456;2022-09-13T17:04:47;8.40;;;3.60;;
70981;SDS011;58640;51.320;9.456;2022-09-13T17:07:13;5.85;;;3.35;;
70981;SDS011;58640;51.320;9.456;2022-09-13T17:09:38;6.47;;;4.00;;
70981;SDS011;58640;51.320;9.456;2022-09-13T17:12:05;6.18;;;4.13;;
70981;SDS011;58640;51.320;9.456;2022-09-13T17:14:35;6.32;;;3.70;;
70981;SDS011;58640;51.320;9.456;2022-09-13T17:17:00;5.30;;;3.65;;
70981;SDS011;58640;51.320;9.456;2022-09-13T17:19:30;4.10;;;3.13;;
70981;SDS011;58640;51.320;9.456;2022-09-13T17:21:57;3.88;;;3.03;;
70981;SDS011;58640;51.320;9.456;2022-09-13T17:24:24;6.45;;;3.65;;
70981;SDS011;58640;51.320;9.456;2022-09-13T17:26:51;9.35;;;5.40;;
70981;SDS011;58640;51.320;9.456;2022-09-13T17:29:16;6.90;;;3.70;;
70981;SDS011;58640;51.320;9.456;2022-09-13T17:31:42;8.63;;;4.65;;
70981;SDS011;58640;51.320;9.456;2022-09-13T17:34:07;5.95;;;4.07;;
70981;SDS011;58640;51.320;9.456;2022-09-13T17:36:37;8.80;;;4.57;;
70981;SDS011;58640;51.320;9.456;2022-09-13T17:39:04;10.15;;;4.78;;
70981;SDS011;58640;51.320;9.456;2022-09-13T17:41:29;8.43;;;4.45;;
70981;SDS011;58640;51.320;9.456;2022-09-13T17:43:55;10.85;;;4.63;;
70981;SDS011;58640;51.320;9.456;2022-09-13T17:46:21;8.27;;;5.13;;
70981;SDS011;58640;51.320;9.456;2022-09-13T17:48:49;10.73;;;4.70;;
70981;SDS011;58640;51.320;9.456;2022-09-13T17:51:17;7.63;;;4.82;;
70981;SDS011;58640;51.320;9.456;2022-09-13T17:53:48;11.02;;;4.78;;
70981;SDS011;58640;51.320;9.456;2022-09-13T17:56:17;7.93;;;3.88;;
70981;SDS011;58640;51.320;9.456;2022-09-13T17:58:44;4.93;;;4.43;;
70981;SDS011;58640;51.320;9.456;2022-09-13T18:01:09;8.57;;;4.35;;
70981;SDS011;58640;51.320;9.456;2022-09-13T18:03:35;8.93;;;5.25;;
70981;SDS011;58640;51.320;9.456;2022-09-13T18:06:02;13.00;;;4.97;;
70981;SDS011;58640;51.320;9.456;2022-09-13T18:08:29;8.57;;;4.65;;
70981;SDS011;58640;51.320;9.456;2022-09-13T18:11:29;8.43;;;4.63;;
70981;SDS011;58640;51.320;9.456;2022-09-13T18:13:47;9.75;;;4.55;;
70981;SDS011;58640;51.320;9.456;2022-09-13T18:16:14;7.85;;;3.78;;
70981;SDS011;58640;51.320;9.456;2022-09-13T18:18:42;7.30;;;4.40;;
70981;SDS011;58640;51.320;9.456;2022-09-13T18:21:10;9.38;;;4.93;;
70981;SDS011;58640;51.320;9.456;2022-09-13T18:23:38;9.00;;;4.53;;
70981;SDS011;58640;51.320;9.456;2022-09-13T18:26:05;6.28;;;4.57;;